Pflugerville's Hourly Summary for Thursday, July 5, 2018
Hour Temp
(f)
RH
(%)
Solar Rad.
(MJ/m2)
Rainfall
(in)
Wind
(mph)
7/5/2018 12:00 AM 71 97 0 0 0.04
7/5/2018 1:00 AM 70 95 0 0 0.04
7/5/2018 2:00 AM 70 96 0 0 0.04
7/5/2018 3:00 AM 70 96 0 0 0.1
7/5/2018 4:00 AM 70 96 0 0 1.45
7/5/2018 5:00 AM 70 97 0 0 1.47
7/5/2018 6:00 AM 71 97 0.01 0 1.47
7/5/2018 7:00 AM 71 97 0.11 0 0.83
7/5/2018 8:00 AM 73 96 0.54 0 0.57
7/5/2018 9:00 AM 76 90 0.98 0 0.4
7/5/2018 10:00 AM 76 74 0.98 0 0.35
7/5/2018 11:00 AM 79 66 2.12 0 0.66
7/5/2018 12:00 PM 84 63 3.1 0 2.64
7/5/2018 1:00 PM 85 55 3.1 0 2.64
7/5/2018 2:00 PM 87 51 2.83 0 2.62
7/5/2018 3:00 PM 89 46 2.83 0 2.46
7/5/2018 4:00 PM 90 42 2.75 0 1.77
7/5/2018 5:00 PM 90 33 2.55 0 1.77
7/5/2018 6:00 PM 91 40 1.95 0 2.36
7/5/2018 7:00 PM 91 43 1.09 0 1.77
7/5/2018 8:00 PM 89 48 0.51 0 1.77
7/5/2018 9:00 PM 86 58 0.07 0 0
7/5/2018 10:00 PM 83 61 0 0 0
7/5/2018 11:00 PM 81 61 0 0 0
Data Summary 79 70 25.52 0.00 1.13